Time;durP1;ratioP1;P1;durP2;ratioP2;P2;SDS_P1;SDS_P2;PMS_P1;PMS_P2;Temp;Humidity;BMP_temperature;BMP_pressure;BME280_temperature;BME280_humidity;BME280_pressure;Samples;Min_cycle;Max_cycle;Signal;HPM_P1;HPM_P2
2024/01/12 00:02:01;;;;;;;39.63;27.37;;;2.10;99.90;;;;;;5075434;28;20487;-64
2024/01/12 00:04:27;;;;;;;43.70;27.00;;;2.10;99.90;;;;;;5075311;28;20449;-64
2024/01/12 00:06:55;;;;;;;42.23;26.20;;;2.10;99.90;;;;;;5074891;28;20441;-64
2024/01/12 00:09:22;;;;;;;37.23;26.33;;;2.10;99.90;;;;;;5074897;28;20799;-64
2024/01/12 00:11:49;;;;;;;39.90;25.57;;;2.00;99.90;;;;;;5074997;28;20444;-64
2024/01/12 00:14:15;;;;;;;33.17;22.83;;;2.00;99.90;;;;;;5074953;28;20445;-64
2024/01/12 00:16:47;;;;;;;40.90;26.70;;;2.10;99.90;;;;;;5074840;28;20440;-64
2024/01/12 00:19:14;;;;;;;43.10;27.23;;;2.10;99.90;;;;;;5074332;28;21059;-64
2024/01/12 00:21:43;;;;;;;41.87;28.43;;;2.10;99.90;;;;;;5074623;28;20440;-64
2024/01/12 00:24:11;;;;;;;37.20;26.77;;;2.10;99.90;;;;;;5075313;28;20554;-63
2024/01/12 00:26:38;;;;;;;38.63;26.97;;;2.10;99.90;;;;;;5074440;28;20516;-64
2024/01/12 00:29:05;;;;;;;42.43;29.00;;;2.10;99.90;;;;;;5074283;28;20465;-64
2024/01/12 00:31:33;;;;;;;37.80;27.97;;;2.10;99.90;;;;;;5074486;28;20452;-64
2024/01/12 00:34:00;;;;;;;36.80;26.80;;;2.10;99.90;;;;;;5074251;28;20505;-64
2024/01/12 00:36:27;;;;;;;45.90;28.67;;;2.10;99.90;;;;;;5073828;28;20453;-64
2024/01/12 00:38:53;;;;;;;42.93;29.83;;;2.10;99.90;;;;;;5073670;28;20859;-64
2024/01/12 00:41:22;;;;;;;39.87;27.73;;;2.10;99.90;;;;;;5074082;28;20461;-64
2024/01/12 00:43:49;;;;;;;39.80;26.40;;;2.00;99.90;;;;;;5073718;28;21074;-64
2024/01/12 00:46:16;;;;;;;42.77;28.13;;;2.10;99.90;;;;;;5073730;28;20445;-64
2024/01/12 00:48:43;;;;;;;39.43;28.20;;;2.00;99.90;;;;;;5073910;28;20475;-64
2024/01/12 00:51:11;;;;;;;38.03;26.83;;;2.00;99.90;;;;;;5074175;28;20495;-64
2024/01/12 00:53:37;;;;;;;44.60;29.13;;;2.10;99.90;;;;;;5073867;28;20452;-64
2024/01/12 00:56:05;;;;;;;51.83;31.17;;;2.00;99.90;;;;;;5073655;28;20451;-64
2024/01/12 00:58:34;;;;;;;46.07;29.23;;;2.00;99.90;;;;;;5073161;28;20465;-64
2024/01/12 01:01:00;;;;;;;44.93;28.00;;;2.00;99.90;;;;;;5073597;28;20444;-64
2024/01/12 01:03:27;;;;;;;43.80;28.50;;;2.00;99.90;;;;;;5073441;28;20502;-64
2024/01/12 01:05:54;;;;;;;53.23;31.60;;;2.00;99.90;;;;;;5073448;28;20440;-64
2024/01/12 01:08:20;;;;;;;47.07;31.47;;;2.00;99.90;;;;;;5073583;28;20464;-64
2024/01/12 01:10:47;;;;;;;54.17;33.37;;;2.00;99.90;;;;;;5073542;28;20453;-64
2024/01/12 01:13:14;;;;;;;51.00;31.40;;;2.00;99.90;;;;;;5073619;28;20443;-64
2024/01/12 01:15:42;;;;;;;49.60;30.30;;;2.10;99.90;;;;;;5073113;28;20449;-64
2024/01/12 01:18:10;;;;;;;47.53;29.97;;;2.10;99.90;;;;;;5073522;28;20476;-64
2024/01/12 01:20:37;;;;;;;51.70;31.33;;;2.00;99.90;;;;;;5073358;28;20445;-64
2024/01/12 01:23:04;;;;;;;46.70;28.93;;;2.00;99.90;;;;;;5073365;28;20487;-64
2024/01/12 01:25:31;;;;;;;57.03;33.03;;;2.00;99.90;;;;;;5073206;28;20953;-64
2024/01/12 01:27:57;;;;;;;55.63;30.80;;;2.00;99.90;;;;;;5073125;28;20445;-64
2024/01/12 01:30:24;;;;;;;47.37;30.43;;;2.00;99.90;;;;;;5073373;28;20453;-64
2024/01/12 01:32:52;;;;;;;51.00;30.97;;;2.10;99.90;;;;;;5072993;28;20951;-63
2024/01/12 01:35:19;;;;;;;47.80;30.17;;;2.10;99.90;;;;;;5073030;28;20456;-64
2024/01/12 01:37:46;;;;;;;50.17;30.43;;;2.10;99.90;;;;;;5073452;28;20467;-64
2024/01/12 01:40:13;;;;;;;49.07;31.40;;;2.10;99.90;;;;;;5072893;28;20997;-63
2024/01/12 01:42:40;;;;;;;51.90;31.03;;;2.20;99.90;;;;;;5073177;28;20507;-65
2024/01/12 01:45:07;;;;;;;51.60;29.00;;;2.20;99.90;;;;;;5072771;28;20894;-65
2024/01/12 01:47:34;;;;;;;52.10;30.40;;;2.20;99.90;;;;;;5073223;28;20449;-65
2024/01/12 01:50:01;;;;;;;50.77;30.70;;;2.20;99.90;;;;;;5073146;28;20460;-65
2024/01/12 01:52:29;;;;;;;49.53;30.67;;;2.20;99.90;;;;;;5073485;28;20437;-65
2024/01/12 01:54:57;;;;;;;52.07;31.43;;;2.20;99.90;;;;;;5073017;28;20445;-65
2024/01/12 01:57:26;;;;;;;46.37;31.30;;;2.20;99.90;;;;;;5073950;28;20824;-65
2024/01/12 01:59:54;;;;;;;48.73;28.47;;;2.20;99.90;;;;;;5077192;28;20467;-65
2024/01/12 02:02:21;;;;;;;48.93;31.37;;;2.20;99.90;;;;;;5076840;28;20476;-65
2024/01/12 02:04:48;;;;;;;51.03;31.87;;;2.20;99.90;;;;;;5077009;28;20961;-65
2024/01/12 02:07:17;;;;;;;51.80;33.57;;;2.20;99.90;;;;;;5077163;28;20440;-65
2024/01/12 02:09:43;;;;;;;51.60;32.90;;;2.20;99.90;;;;;;5077334;28;20467;-65
2024/01/12 02:12:10;;;;;;;56.03;31.23;;;2.20;99.90;;;;;;5078136;28;20465;-65
2024/01/12 02:14:37;;;;;;;46.63;29.83;;;2.20;99.90;;;;;;5077167;28;20859;-65
2024/01/12 02:17:04;;;;;;;48.27;30.23;;;2.20;99.90;;;;;;5076866;28;20449;-65
2024/01/12 02:19:31;;;;;;;68.23;34.97;;;2.20;99.90;;;;;;5077586;28;20464;-65
2024/01/12 02:21:59;;;;;;;64.47;32.40;;;2.20;99.90;;;;;;5076738;28;20444;-66
2024/01/12 02:24:26;;;;;;;68.80;33.90;;;2.10;99.90;;;;;;5076626;28;20483;-65
2024/01/12 02:26:52;;;;;;;59.37;32.57;;;2.10;99.90;;;;;;5076355;28;20825;-65
2024/01/12 02:29:19;;;;;;;67.77;34.20;;;2.00;99.90;;;;;;5076197;28;20967;-65
2024/01/12 02:31:47;;;;;;;61.20;33.47;;;2.00;99.90;;;;;;5076400;28;20436;-65
2024/01/12 02:34:15;;;;;;;65.60;34.93;;;2.00;99.90;;;;;;5076800;28;20441;-65
2024/01/12 02:36:42;;;;;;;64.67;35.60;;;2.00;99.90;;;;;;5076192;28;20490;-65
2024/01/12 02:39:10;;;;;;;71.40;35.97;;;2.00;99.90;;;;;;5076282;28;20475;-65
2024/01/12 02:41:37;;;;;;;67.67;36.47;;;2.00;99.90;;;;;;5076156;28;20931;-65
2024/01/12 02:44:04;;;;;;;75.03;35.43;;;2.00;99.90;;;;;;5076295;28;20515;-65
2024/01/12 02:46:31;;;;;;;68.70;35.07;;;1.90;99.90;;;;;;5076443;28;20444;-64
2024/01/12 02:48:58;;;;;;;68.23;33.03;;;1.90;99.90;;;;;;5076099;28;20564;-64
2024/01/12 02:51:25;;;;;;;73.83;34.93;;;1.90;99.90;;;;;;5076139;28;20455;-64
2024/01/12 02:53:51;;;;;;;73.00;34.27;;;2.00;99.90;;;;;;5076238;28;20445;-64
2024/01/12 02:56:19;;;;;;;72.00;35.07;;;2.00;99.90;;;;;;5076310;28;20445;-64
2024/01/12 02:58:46;;;;;;;77.93;35.47;;;2.00;99.90;;;;;;5075968;28;20471;-64
2024/01/12 03:01:13;;;;;;;73.57;35.10;;;2.00;99.90;;;;;;5076054;28;20447;-64
2024/01/12 03:03:39;;;;;;;76.60;35.80;;;2.10;99.90;;;;;;5075921;28;20480;-64
2024/01/12 03:06:07;;;;;;;69.60;35.80;;;2.00;99.90;;;;;;5076439;28;20505;-64
2024/01/12 03:08:34;;;;;;;66.20;34.70;;;2.10;99.90;;;;;;5077386;28;20468;-64
2024/01/12 03:11:01;;;;;;;67.30;32.73;;;2.00;99.90;;;;;;5076719;28;20498;-64
2024/01/12 03:13:32;;;;;;;75.40;36.57;;;2.00;99.90;;;;;;5077188;28;20436;-64
2024/01/12 03:15:58;;;;;;;70.17;34.87;;;2.10;99.90;;;;;;5076551;28;20433;-64
2024/01/12 03:18:25;;;;;;;76.80;35.10;;;2.10;99.90;;;;;;5077126;28;20456;-64
2024/01/12 03:20:52;;;;;;;72.90;34.03;;;2.10;99.90;;;;;;5076714;28;20452;-64
2024/01/12 03:23:19;;;;;;;69.83;34.57;;;2.20;99.90;;;;;;5076425;28;20480;-65
2024/01/12 03:25:45;;;;;;;64.37;33.27;;;2.20;99.90;;;;;;5076360;28;20444;-65
2024/01/12 03:28:12;;;;;;;63.73;32.57;;;2.20;99.90;;;;;;5076372;28;20472;-65
2024/01/12 03:30:40;;;;;;;76.37;35.10;;;2.20;99.90;;;;;;5076256;28;20819;-65
2024/01/12 03:33:08;;;;;;;76.37;33.37;;;2.30;99.90;;;;;;5075924;28;20854;-65
2024/01/12 03:35:35;;;;;;;81.20;35.27;;;2.30;99.90;;;;;;5075725;28;20835;-64
2024/01/12 03:38:02;;;;;;;91.10;37.97;;;2.30;99.90;;;;;;5076131;28;20475;-65
2024/01/12 03:40:29;;;;;;;74.30;35.97;;;2.30;99.90;;;;;;5075837;28;20463;-64
2024/01/12 03:42:56;;;;;;;87.17;38.97;;;2.30;99.90;;;;;;5075697;28;20527;-64
2024/01/12 03:45:22;;;;;;;95.43;37.87;;;2.40;99.90;;;;;;5075739;28;20455;-64
2024/01/12 03:47:50;;;;;;;93.57;39.67;;;2.40;99.90;;;;;;5075577;28;20452;-64
2024/01/12 03:50:17;;;;;;;100.23;38.33;;;2.40;99.90;;;;;;5075526;28;20453;-64
2024/01/12 03:52:44;;;;;;;94.20;39.00;;;2.40;99.90;;;;;;5075567;28;20448;-64
2024/01/12 03:55:10;;;;;;;107.73;39.50;;;2.40;99.90;;;;;;5075433;28;20467;-64
2024/01/12 03:57:37;;;;;;;108.40;43.17;;;2.40;99.90;;;;;;5075484;28;20448;-64
2024/01/12 04:00:05;;;;;;;112.33;42.30;;;2.40;99.90;;;;;;5074972;28;20465;-64
2024/01/12 04:02:32;;;;;;;99.67;42.87;;;2.40;99.90;;;;;;5074876;28;20547;-65
2024/01/12 04:05:00;;;;;;;106.70;39.80;;;2.50;99.90;;;;;;5074795;28;20488;-64
2024/01/12 04:07:27;;;;;;;111.93;42.03;;;2.50;99.90;;;;;;5074848;28;20452;-64
2024/01/12 04:09:54;;;;;;;104.93;40.17;;;2.50;99.90;;;;;;5074528;28;20468;-64
2024/01/12 04:12:20;;;;;;;115.97;43.23;;;2.50;99.90;;;;;;5074420;28;20942;-65
2024/01/12 04:14:47;;;;;;;106.57;42.30;;;2.50;99.90;;;;;;5074743;28;20436;-64
2024/01/12 04:17:14;;;;;;;99.63;40.30;;;2.50;99.90;;;;;;5074286;28;20939;-64
2024/01/12 04:19:41;;;;;;;109.03;41.50;;;2.50;99.90;;;;;;5073915;28;20492;-64
2024/01/12 04:22:09;;;;;;;112.70;41.87;;;2.60;99.90;;;;;;5074450;28;20449;-64
2024/01/12 04:24:35;;;;;;;104.53;41.40;;;2.60;99.90;;;;;;5074425;28;20480;-64
2024/01/12 04:27:03;;;;;;;97.67;38.70;;;2.60;99.90;;;;;;5074438;28;20484;-64
2024/01/12 04:29:29;;;;;;;91.47;35.10;;;2.60;99.90;;;;;;5073979;28;20520;-64
2024/01/12 04:31:56;;;;;;;97.30;38.67;;;2.60;99.90;;;;;;5074222;28;20449;-65
2024/01/12 04:34:23;;;;;;;97.07;40.10;;;2.60;99.90;;;;;;5074344;28;20437;-65
2024/01/12 04:36:49;;;;;;;113.50;41.23;;;2.60;99.90;;;;;;5073875;28;20449;-64
2024/01/12 04:39:18;;;;;;;100.10;40.90;;;2.60;99.90;;;;;;5073883;28;20467;-64
2024/01/12 04:41:45;;;;;;;84.07;36.87;;;2.60;99.90;;;;;;5073906;28;20448;-64
2024/01/12 04:44:13;;;;;;;89.43;38.60;;;2.60;99.90;;;;;;5074048;28;20491;-64
2024/01/12 04:46:42;;;;;;;86.97;38.13;;;2.60;99.90;;;;;;5073809;28;20444;-64
2024/01/12 04:49:09;;;;;;;90.40;39.43;;;2.60;99.90;;;;;;5073911;28;20468;-64
2024/01/12 04:51:35;;;;;;;86.30;40.10;;;2.70;99.90;;;;;;5073569;28;20819;-64
2024/01/12 04:54:02;;;;;;;91.67;42.07;;;2.70;99.90;;;;;;5074038;28;20445;-64
2024/01/12 04:56:30;;;;;;;90.30;38.30;;;2.70;99.90;;;;;;5073861;28;20447;-64
2024/01/12 04:58:57;;;;;;;83.47;37.57;;;2.70;99.90;;;;;;5073784;28;20837;-65
2024/01/12 05:01:23;;;;;;;85.50;38.33;;;2.70;99.90;;;;;;5073883;28;20444;-64
2024/01/12 05:03:50;;;;;;;94.80;40.63;;;2.70;99.90;;;;;;5073647;28;20519;-64
2024/01/12 05:06:17;;;;;;;89.53;39.43;;;2.70;99.90;;;;;;5073363;28;20436;-65
2024/01/12 05:08:43;;;;;;;82.73;36.10;;;2.70;99.90;;;;;;5073308;28;20460;-65
2024/01/12 05:11:10;;;;;;;93.13;39.50;;;2.70;99.90;;;;;;5073242;28;20907;-64
2024/01/12 05:13:38;;;;;;;72.47;35.37;;;2.70;99.90;;;;;;5073628;28;20440;-64
2024/01/12 05:16:05;;;;;;;81.80;35.43;;;2.70;99.90;;;;;;5073377;28;20468;-65
2024/01/12 05:18:32;;;;;;;79.23;35.30;;;2.70;99.90;;;;;;5073660;28;20465;-64
2024/01/12 05:20:59;;;;;;;80.77;35.30;;;2.70;99.90;;;;;;5073305;28;20808;-65
2024/01/12 05:23:25;;;;;;;78.13;37.00;;;2.70;99.90;;;;;;5073472;28;20473;-64
2024/01/12 05:25:52;;;;;;;85.40;39.17;;;2.70;99.90;;;;;;5073547;28;20444;-64
2024/01/12 05:28:19;;;;;;;78.27;37.93;;;2.70;99.90;;;;;;5073186;28;20985;-64
2024/01/12 05:30:47;;;;;;;77.30;37.10;;;2.70;99.90;;;;;;5073422;28;20456;-64
2024/01/12 05:33:13;;;;;;;83.57;36.87;;;2.70;99.90;;;;;;5073451;28;20445;-65
2024/01/12 05:35:40;;;;;;;66.70;32.40;;;2.70;99.90;;;;;;5073240;28;20457;-64
2024/01/12 05:38:07;;;;;;;53.53;28.37;;;2.60;99.90;;;;;;5073383;28;20440;-64
2024/01/12 05:40:33;;;;;;;63.47;31.07;;;2.60;99.90;;;;;;5073390;28;20816;-64
2024/01/12 05:43:00;;;;;;;61.43;31.23;;;2.70;99.90;;;;;;5073193;28;20453;-64
2024/01/12 05:45:27;;;;;;;64.20;30.40;;;2.70;99.90;;;;;;5073193;28;20542;-64
2024/01/12 05:47:55;;;;;;;75.77;31.43;;;2.70;99.90;;;;;;5072787;28;20946;-65
2024/01/12 05:50:22;;;;;;;67.83;32.50;;;2.70;99.90;;;;;;5073558;28;20433;-65
2024/01/12 05:52:48;;;;;;;72.20;33.83;;;2.70;99.90;;;;;;5073526;28;20455;-65
2024/01/12 05:55:15;;;;;;;74.13;33.60;;;2.70;99.90;;;;;;5073397;28;20441;-64
2024/01/12 05:57:42;;;;;;;66.97;33.97;;;2.70;99.90;;;;;;5073419;28;20437;-65
2024/01/12 06:00:10;;;;;;;61.20;29.10;;;2.70;99.90;;;;;;5073200;28;20468;-65
2024/01/12 06:02:36;;;;;;;58.60;29.43;;;2.70;99.90;;;;;;5073165;28;20441;-64
2024/01/12 06:05:05;;;;;;;57.60;30.10;;;2.70;99.90;;;;;;5073262;28;20476;-64
2024/01/12 06:07:32;;;;;;;56.60;29.50;;;2.70;99.90;;;;;;5073158;28;20448;-64
2024/01/12 06:09:59;;;;;;;58.10;29.20;;;2.80;99.90;;;;;;5072769;28;20476;-64
2024/01/12 06:12:25;;;;;;;62.13;30.23;;;2.80;99.90;;;;;;5072802;28;20824;-65
2024/01/12 06:14:53;;;;;;;54.00;29.33;;;2.80;99.90;;;;;;5072985;28;20444;-64
2024/01/12 06:17:20;;;;;;;67.63;32.97;;;2.80;99.90;;;;;;5073595;28;20464;-64
2024/01/12 06:19:46;;;;;;;65.43;31.30;;;2.80;99.90;;;;;;5073161;28;20467;-64
2024/01/12 06:22:14;;;;;;;57.13;30.20;;;2.80;99.90;;;;;;5073648;28;20449;-65
2024/01/12 06:24:41;;;;;;;51.93;27.57;;;2.70;99.90;;;;;;5074050;28;20484;-64
2024/01/12 06:27:08;;;;;;;57.20;29.60;;;2.80;99.90;;;;;;5075381;28;20441;-64
2024/01/12 06:29:36;;;;;;;60.93;28.97;;;2.70;99.90;;;;;;5074840;28;20974;-64
2024/01/12 06:32:03;;;;;;;58.67;27.20;;;2.70;99.90;;;;;;5073554;28;20440;-65
2024/01/12 06:34:30;;;;;;;63.70;28.37;;;2.80;99.90;;;;;;5073252;28;21008;-64
2024/01/12 06:36:57;;;;;;;55.03;29.20;;;2.70;99.90;;;;;;5073221;28;20448;-64
2024/01/12 06:39:25;;;;;;;48.60;26.03;;;2.80;99.90;;;;;;5073036;28;20465;-64
2024/01/12 06:41:52;;;;;;;53.50;27.17;;;2.80;99.90;;;;;;5073000;28;20451;-65
2024/01/12 06:44:19;;;;;;;57.97;28.50;;;2.80;99.90;;;;;;5075488;28;20487;-65
2024/01/12 06:46:46;;;;;;;62.77;30.53;;;2.80;99.90;;;;;;5076523;28;20464;-64
2024/01/12 06:49:12;;;;;;;57.37;30.40;;;2.80;99.90;;;;;;5076804;28;20499;-63
2024/01/12 06:51:39;;;;;;;58.30;28.83;;;2.80;99.90;;;;;;5076144;28;20550;-64
2024/01/12 06:54:06;;;;;;;50.20;26.67;;;2.80;99.90;;;;;;5076292;28;20463;-64
2024/01/12 06:56:37;;;;;;;53.90;27.63;;;2.80;99.90;;;;;;5076441;28;20444;-64
2024/01/12 06:59:04;;;;;;;67.53;30.53;;;2.80;99.90;;;;;;5078169;28;20472;-65
2024/01/12 07:01:31;;;;;;;55.67;29.00;;;2.80;99.90;;;;;;5076169;28;20487;-65
2024/01/12 07:03:57;;;;;;;78.30;32.50;;;2.80;99.90;;;;;;5076532;28;20480;-65
2024/01/12 07:06:24;;;;;;;62.60;29.63;;;2.80;99.90;;;;;;5075834;28;20448;-64
2024/01/12 07:08:51;;;;;;;69.43;31.10;;;2.80;99.90;;;;;;5075929;28;20464;-64
2024/01/12 07:11:19;;;;;;;65.83;30.23;;;2.80;99.90;;;;;;5076589;28;20453;-64
2024/01/12 07:13:47;;;;;;;67.50;30.60;;;2.80;99.90;;;;;;5075761;28;20441;-64
2024/01/12 07:16:14;;;;;;;71.77;30.77;;;2.80;99.90;;;;;;5075443;28;20441;-64
2024/01/12 07:18:42;;;;;;;59.90;30.33;;;2.80;99.90;;;;;;5075470;28;20974;-64
2024/01/12 07:21:08;;;;;;;53.10;26.80;;;2.80;99.90;;;;;;5075753;28;20445;-64
2024/01/12 07:23:35;;;;;;;71.67;29.27;;;2.80;99.90;;;;;;5075639;28;20893;-64
2024/01/12 07:26:02;;;;;;;66.20;27.23;;;2.80;99.90;;;;;;5075571;28;20492;-64
2024/01/12 07:28:29;;;;;;;64.50;30.90;;;2.80;99.90;;;;;;5075493;28;20468;-64
2024/01/12 07:30:57;;;;;;;63.60;27.50;;;2.70;99.90;;;;;;5075407;28;20441;-64
2024/01/12 07:33:23;;;;;;;60.10;27.77;;;2.80;99.90;;;;;;5075422;28;20437;-64
2024/01/12 07:35:50;;;;;;;67.77;29.57;;;2.80;99.90;;;;;;5075113;28;20448;-64
2024/01/12 07:38:18;;;;;;;66.13;29.77;;;2.70;99.90;;;;;;5075294;28;20460;-64
2024/01/12 07:40:44;;;;;;;76.67;32.53;;;2.70;99.90;;;;;;5075317;28;20476;-64
2024/01/12 07:43:11;;;;;;;71.93;30.07;;;2.70;99.90;;;;;;5075284;28;20445;-64
2024/01/12 07:45:38;;;;;;;56.93;26.77;;;2.70;99.90;;;;;;5075062;28;20529;-64
2024/01/12 07:48:07;;;;;;;67.80;29.83;;;2.70;99.90;;;;;;5074734;28;20443;-64
2024/01/12 07:50:34;;;;;;;61.33;28.90;;;2.70;99.90;;;;;;5075049;28;20871;-64
2024/01/12 07:53:01;;;;;;;64.20;27.80;;;2.70;99.90;;;;;;5074980;28;20496;-64
2024/01/12 07:55:28;;;;;;;63.67;30.63;;;2.70;99.90;;;;;;5073629;28;20441;-64
2024/01/12 07:57:54;;;;;;;56.63;28.10;;;2.70;99.90;;;;;;5075014;28;20468;-64
2024/01/12 08:00:22;;;;;;;70.47;29.10;;;2.70;99.90;;;;;;5074679;28;21049;-64
2024/01/12 08:02:50;;;;;;;58.60;28.00;;;2.70;99.90;;;;;;5074792;28;20811;-64
2024/01/12 08:05:19;;;;;;;54.70;27.67;;;2.70;99.90;;;;;;5074620;28;20476;-64
2024/01/12 08:07:45;;;;;;;59.80;27.47;;;2.70;99.90;;;;;;5074789;28;20441;-64
2024/01/12 08:10:12;;;;;;;58.27;28.60;;;2.70;99.90;;;;;;5074602;28;20490;-64
2024/01/12 08:12:39;;;;;;;68.53;30.40;;;2.70;99.90;;;;;;5074630;28;20452;-64
2024/01/12 08:15:08;;;;;;;64.73;26.70;;;2.70;99.90;;;;;;5074568;28;20440;-64
2024/01/12 08:17:34;;;;;;;57.47;28.90;;;2.80;99.90;;;;;;5074583;28;20495;-64
2024/01/12 08:20:01;;;;;;;60.70;28.50;;;2.70;99.90;;;;;;5074498;28;20496;-64
2024/01/12 08:22:29;;;;;;;60.57;28.50;;;2.80;99.90;;;;;;5074152;28;20448;-64
2024/01/12 08:24:56;;;;;;;70.07;29.20;;;2.80;99.90;;;;;;5074338;28;20512;-64
2024/01/12 08:27:23;;;;;;;66.70;30.07;;;2.80;99.90;;;;;;5074419;28;20444;-64
2024/01/12 08:29:50;;;;;;;57.40;27.57;;;2.80;99.90;;;;;;5073967;28;20460;-64
2024/01/12 08:32:16;;;;;;;60.40;28.30;;;2.90;99.90;;;;;;5074055;28;20449;-64
2024/01/12 08:34:43;;;;;;;61.33;28.90;;;2.90;99.90;;;;;;5074130;28;20445;-64
2024/01/12 08:37:10;;;;;;;51.90;27.03;;;2.90;99.90;;;;;;5074169;28;20432;-64
2024/01/12 08:39:38;;;;;;;66.20;35.40;;;2.90;99.90;;;;;;5074046;28;20468;-64
2024/01/12 08:42:05;;;;;;;51.07;29.60;;;3.00;99.90;;;;;;5074093;28;20440;-64
2024/01/12 08:44:32;;;;;;;56.17;31.40;;;3.00;99.90;;;;;;5073944;28;20523;-64
2024/01/12 08:46:59;;;;;;;61.23;29.93;;;3.00;99.90;;;;;;5074033;28;20440;-64
2024/01/12 08:49:26;;;;;;;64.17;30.80;;;3.00;99.90;;;;;;5073821;28;20492;-64
2024/01/12 08:51:52;;;;;;;51.30;28.00;;;3.00;99.90;;;;;;5073896;28;20444;-64
2024/01/12 08:54:19;;;;;;;53.60;29.20;;;3.00;99.90;;;;;;5073842;28;20444;-64
2024/01/12 08:56:47;;;;;;;61.97;27.43;;;3.00;99.90;;;;;;5073819;28;20794;-64
2024/01/12 08:59:14;;;;;;;56.53;30.00;;;3.00;99.90;;;;;;5073659;28;20460;-64
2024/01/12 09:01:40;;;;;;;49.73;24.30;;;3.00;99.90;;;;;;5073856;28;20449;-64
2024/01/12 09:04:07;;;;;;;47.93;23.30;;;3.00;99.90;;;;;;5073696;28;20448;-64
2024/01/12 09:06:34;;;;;;;49.63;24.80;;;3.10;99.90;;;;;;5073397;28;20488;-64
2024/01/12 09:09:01;;;;;;;52.63;25.50;;;3.10;99.90;;;;;;5073579;28;20471;-64
2024/01/12 09:11:27;;;;;;;53.27;28.10;;;3.10;99.90;;;;;;5073245;28;21004;-64
2024/01/12 09:13:55;;;;;;;55.00;27.23;;;3.10;99.90;;;;;;5073444;28;20449;-64
2024/01/12 09:16:22;;;;;;;47.50;23.00;;;3.10;99.90;;;;;;5073220;28;20437;-64
2024/01/12 09:18:49;;;;;;;48.27;22.53;;;3.10;99.90;;;;;;5073185;28;20885;-64
2024/01/12 09:21:16;;;;;;;35.20;21.03;;;3.10;99.90;;;;;;5073571;28;20468;-64
2024/01/12 09:23:43;;;;;;;36.10;19.67;;;3.10;99.90;;;;;;5073448;28;20482;-64
2024/01/12 09:26:10;;;;;;;34.07;19.40;;;3.20;99.90;;;;;;5073373;28;20526;-64
2024/01/12 09:28:37;;;;;;;33.70;19.27;;;3.20;99.90;;;;;;5073324;28;20468;-64
2024/01/12 09:31:06;;;;;;;42.10;22.50;;;3.20;99.90;;;;;;5073368;28;20441;-64
2024/01/12 09:33:33;;;;;;;36.40;20.67;;;3.20;99.90;;;;;;5073333;28;20460;-64
2024/01/12 09:35:59;;;;;;;39.50;21.10;;;3.30;99.90;;;;;;5073089;28;20471;-64
2024/01/12 09:38:26;;;;;;;39.77;22.50;;;3.30;99.90;;;;;;5073479;28;20461;-64
2024/01/12 09:40:53;;;;;;;36.70;19.60;;;3.20;99.90;;;;;;5073812;28;20455;-64
2024/01/12 09:43:22;;;;;;;32.63;18.63;;;3.20;99.90;;;;;;5074156;28;20440;-64
2024/01/12 09:45:52;;;;;;;42.83;21.90;;;3.30;99.90;;;;;;5074960;28;20523;-64
2024/01/12 09:48:20;;;;;;;43.10;21.03;;;3.30;99.90;;;;;;5074992;28;20464;-64
2024/01/12 09:50:51;;;;;;;42.90;23.67;;;3.30;99.90;;;;;;5073602;28;20441;-64
2024/01/12 09:53:18;;;;;;;41.50;23.00;;;3.30;99.90;;;;;;5073591;28;20428;-64
2024/01/12 09:55:45;;;;;;;38.27;20.80;;;3.30;99.90;;;;;;5073263;28;20535;-65
2024/01/12 09:58:12;;;;;;;41.70;20.57;;;3.30;99.90;;;;;;5073126;28;20848;-64
2024/01/12 10:00:41;;;;;;;41.77;20.70;;;3.30;99.90;;;;;;5072665;28;20460;-65
2024/01/12 10:03:08;;;;;;;38.60;20.53;;;3.30;99.90;;;;;;5053188;28;20454;-64
2024/01/12 10:05:38;;;;;;;35.50;18.93;;;3.40;99.90;;;;;;5052978;28;20488;-65
2024/01/12 10:08:07;;;;;;;37.23;19.50;;;3.40;99.90;;;;;;5053049;28;20453;-64
2024/01/12 10:10:34;;;;;;;35.00;21.13;;;3.40;99.90;;;;;;5052971;28;20445;-64
2024/01/12 10:13:02;;;;;;;31.60;20.13;;;3.40;99.90;;;;;;5052693;28;20908;-64
2024/01/12 10:15:29;;;;;;;28.97;17.30;;;3.40;99.90;;;;;;5052860;28;20429;-64
2024/01/12 10:17:56;;;;;;;28.40;17.03;;;3.50;99.90;;;;;;5053390;28;20473;-64
2024/01/12 10:20:23;;;;;;;25.60;14.77;;;3.50;99.90;;;;;;5057319;28;20970;-65
2024/01/12 10:22:57;;;;;;;27.70;15.53;;;3.50;99.90;;;;;;5056892;28;20454;-64
2024/01/12 10:25:23;;;;;;;28.47;15.37;;;3.50;99.90;;;;;;5056790;28;20476;-64
2024/01/12 10:27:56;;;;;;;33.20;17.10;;;3.60;99.90;;;;;;5059018;28;20445;-64
2024/01/12 10:30:23;;;;;;;25.23;15.33;;;3.60;99.90;;;;;;5076940;28;20449;-64
2024/01/12 10:32:53;;;;;;;24.20;15.20;;;3.60;99.90;;;;;;5076743;28;20440;-64
2024/01/12 10:35:21;;;;;;;27.03;16.57;;;3.60;99.90;;;;;;5076401;28;20448;-64
2024/01/12 10:37:48;;;;;;;24.03;14.43;;;3.60;99.90;;;;;;5076613;28;20440;-64
2024/01/12 10:40:17;;;;;;;26.40;15.20;;;3.60;99.90;;;;;;5076422;28;20504;-64
2024/01/12 10:42:48;;;;;;;23.83;15.17;;;3.60;99.90;;;;;;5076373;28;20474;-64
2024/01/12 10:45:21;;;;;;;28.03;14.37;;;3.60;99.90;;;;;;5076098;28;20986;-64
2024/01/12 10:47:57;;;;;;;27.50;14.17;;;3.60;99.90;;;;;;5076304;28;20960;-64
2024/01/12 10:50:25;;;;;;;26.80;15.00;;;3.70;99.90;;;;;;5076500;28;20431;-64
2024/01/12 10:52:59;;;;;;;26.97;15.67;;;3.70;99.90;;;;;;5076297;28;20448;-64
2024/01/12 10:55:33;;;;;;;26.27;15.37;;;3.70;99.90;;;;;;5076363;28;20467;-64
2024/01/12 10:58:02;;;;;;;23.97;15.20;;;3.70;99.90;;;;;;5076192;28;20530;-64
2024/01/12 11:00:31;;;;;;;30.07;16.93;;;3.70;99.90;;;;;;5076149;28;20480;-64
2024/01/12 11:02:59;;;;;;;26.50;15.80;;;3.70;99.90;;;;;;5076400;28;20881;-64
2024/01/12 11:05:28;;;;;;;29.40;16.27;;;3.70;99.90;;;;;;5076276;28;20554;-65
2024/01/12 11:07:58;;;;;;;31.40;17.83;;;3.70;99.90;;;;;;5075807;28;20989;-65
2024/01/12 11:10:28;;;;;;;32.33;16.37;;;3.70;99.90;;;;;;5075769;28;20982;-65
2024/01/12 11:12:56;;;;;;;31.20;16.70;;;3.70;99.90;;;;;;5075535;28;20931;-65
2024/01/12 11:15:23;;;;;;;35.10;17.00;;;3.70;99.90;;;;;;5075841;28;20476;-65
2024/01/12 11:17:50;;;;;;;28.37;16.60;;;3.70;99.90;;;;;;5075765;28;20445;-64
2024/01/12 11:20:19;;;;;;;32.50;16.07;;;3.70;99.90;;;;;;5075673;28;20467;-65
2024/01/12 11:22:48;;;;;;;28.20;16.97;;;3.70;99.90;;;;;;5075278;28;20440;-64
2024/01/12 11:25:15;;;;;;;34.40;16.37;;;3.70;99.90;;;;;;5075286;28;20444;-64
2024/01/12 11:27:47;;;;;;;31.50;16.57;;;3.70;99.90;;;;;;5075540;28;20445;-64
2024/01/12 11:30:17;;;;;;;26.90;17.10;;;3.70;99.90;;;;;;5075353;28;20492;-65
2024/01/12 11:32:44;;;;;;;34.20;16.57;;;3.70;99.90;;;;;;5075500;28;20440;-64
2024/01/12 11:35:13;;;;;;;30.73;16.53;;;3.80;99.90;;;;;;5075145;28;20462;-65
2024/01/12 11:37:40;;;;;;;30.50;17.87;;;3.80;99.90;;;;;;5075365;28;20452;-64
2024/01/12 11:40:09;;;;;;;32.33;17.30;;;3.80;99.90;;;;;;5075175;28;20468;-64
2024/01/12 11:42:37;;;;;;;32.40;17.57;;;3.80;99.90;;;;;;5075257;28;20451;-64
2024/01/12 11:45:09;;;;;;;33.50;17.53;;;3.90;99.90;;;;;;5075241;28;20444;-64
2024/01/12 11:47:36;;;;;;;31.40;18.20;;;3.90;99.90;;;;;;5075315;28;20459;-64
2024/01/12 11:50:04;;;;;;;26.43;16.67;;;3.90;99.90;;;;;;5074750;28;20993;-64
2024/01/12 11:52:31;;;;;;;25.90;17.30;;;4.00;99.90;;;;;;5075073;28;20528;-64
2024/01/12 11:54:58;;;;;;;35.73;17.63;;;3.90;99.90;;;;;;5075069;28;20437;-64
2024/01/12 11:57:25;;;;;;;33.03;16.30;;;4.00;99.90;;;;;;5075008;28;20441;-64
2024/01/12 11:59:54;;;;;;;31.30;17.13;;;3.90;99.90;;;;;;5074441;28;20982;-64
2024/01/12 12:02:23;;;;;;;37.60;17.60;;;3.90;99.90;;;;;;5075005;28;20466;-64
2024/01/12 12:04:51;;;;;;;37.10;18.30;;;4.00;99.90;;;;;;5074405;28;20946;-64
2024/01/12 12:07:18;;;;;;;32.13;18.27;;;4.00;99.90;;;;;;5074339;28;21012;-64
2024/01/12 12:09:46;;;;;;;30.03;17.47;;;4.10;99.90;;;;;;5074656;28;20471;-64
2024/01/12 12:12:12;;;;;;;34.23;17.50;;;4.10;99.90;;;;;;5074307;28;20965;-64
2024/01/12 12:14:39;;;;;;;37.70;20.10;;;4.20;99.90;;;;;;5074519;28;20456;-64
2024/01/12 12:17:07;;;;;;;35.50;17.63;;;4.10;99.90;;;;;;5074559;28;20449;-64
2024/01/12 12:19:36;;;;;;;30.53;17.30;;;4.10;99.90;;;;;;5074333;28;20464;-64
2024/01/12 12:22:05;;;;;;;30.93;16.90;;;4.10;99.90;;;;;;5074433;28;20436;-64
2024/01/12 12:24:32;;;;;;;31.87;17.20;;;4.10;99.90;;;;;;5074491;28;20453;-64
2024/01/12 12:27:00;;;;;;;29.73;16.60;;;4.00;99.90;;;;;;5074408;28;20476;-64
2024/01/12 12:29:28;;;;;;;32.50;18.37;;;4.00;99.90;;;;;;5074001;28;20978;-64
2024/01/12 12:32:00;;;;;;;41.27;18.70;;;4.00;99.90;;;;;;5074373;28;20491;-64
2024/01/12 12:34:31;;;;;;;39.90;18.30;;;4.00;99.90;;;;;;5074159;28;20440;-64
2024/01/12 12:36:59;;;;;;;35.23;18.20;;;4.00;99.90;;;;;;5074253;28;20457;-64